Burnham, Illinois
Current Conditions -  °F | °C
As of 9:15 PM on Friday 21 Nov 2014 (Local Time) from KGYY Reporting Station
Overcast Overcast  
Wind Chill: 24°   Ceiling: 4000
Heat Index: 31°   Visibility: 10mi
Dew Point: 13°   Wind: 8mph
Humidity: 47%   Direction: 180°S
Pressure: 30.27"   Gusts: NA
Location:  41.6563°N, 87.5444°W
Report Text: KGYY 220315Z AUTO 18007KT 10SM OVC040 00/M11 A3027 RMK AO2 T10051106
Loading
Personal Weather Stations






























Interactive Weather Map New forecast layout! Learn more

10-Day Weather Forecast

Advertisements
Track Severe Weather on mobile